sensor_id;sensor_type;location;lat;lon;timestamp;P1;durP1;ratioP1;P2;durP2;ratioP2
66523;SDS011;53350;52.210;5.160;2023-06-14T00:02:10;9.80;;;3.10;;
66523;SDS011;53350;52.210;5.160;2023-06-14T00:04:36;9.52;;;2.80;;
66523;SDS011;53350;52.210;5.160;2023-06-14T00:07:04;8.25;;;3.00;;
66523;SDS011;53350;52.210;5.160;2023-06-14T00:09:33;9.75;;;3.00;;
66523;SDS011;53350;52.210;5.160;2023-06-14T00:12:01;10.55;;;2.80;;
66523;SDS011;53350;52.210;5.160;2023-06-14T00:14:27;11.63;;;3.30;;
66523;SDS011;53350;52.210;5.160;2023-06-14T00:16:54;9.15;;;2.97;;
66523;SDS011;53350;52.210;5.160;2023-06-14T00:19:23;9.60;;;3.10;;
66523;SDS011;53350;52.210;5.160;2023-06-14T00:21:50;11.25;;;2.88;;
66523;SDS011;53350;52.210;5.160;2023-06-14T00:24:17;10.48;;;3.00;;
66523;SDS011;53350;52.210;5.160;2023-06-14T00:26:43;9.07;;;2.85;;
66523;SDS011;53350;52.210;5.160;2023-06-14T00:29:11;11.13;;;2.72;;
66523;SDS011;53350;52.210;5.160;2023-06-14T00:31:37;9.38;;;3.20;;
66523;SDS011;53350;52.210;5.160;2023-06-14T00:34:04;8.63;;;2.70;;
66523;SDS011;53350;52.210;5.160;2023-06-14T00:36:30;7.93;;;3.05;;
66523;SDS011;53350;52.210;5.160;2023-06-14T00:38:57;11.07;;;3.20;;
66523;SDS011;53350;52.210;5.160;2023-06-14T00:41:23;8.10;;;3.05;;
66523;SDS011;53350;52.210;5.160;2023-06-14T00:43:50;14.75;;;3.30;;
66523;SDS011;53350;52.210;5.160;2023-06-14T00:46:18;9.32;;;3.17;;
66523;SDS011;53350;52.210;5.160;2023-06-14T00:48:44;9.05;;;2.90;;
66523;SDS011;53350;52.210;5.160;2023-06-14T00:51:11;13.52;;;2.65;;
66523;SDS011;53350;52.210;5.160;2023-06-14T00:53:38;12.15;;;3.28;;
66523;SDS011;53350;52.210;5.160;2023-06-14T00:56:05;11.23;;;3.00;;
66523;SDS011;53350;52.210;5.160;2023-06-14T00:58:32;8.57;;;3.03;;
66523;SDS011;53350;52.210;5.160;2023-06-14T01:00:59;9.52;;;3.10;;
66523;SDS011;53350;52.210;5.160;2023-06-14T01:03:26;9.80;;;2.58;;
66523;SDS011;53350;52.210;5.160;2023-06-14T01:05:55;7.95;;;2.78;;
66523;SDS011;53350;52.210;5.160;2023-06-14T01:08:28;10.88;;;2.97;;
66523;SDS011;53350;52.210;5.160;2023-06-14T01:11:05;6.68;;;2.80;;
66523;SDS011;53350;52.210;5.160;2023-06-14T01:13:38;8.63;;;2.72;;
66523;SDS011;53350;52.210;5.160;2023-06-14T01:16:05;11.25;;;2.75;;
66523;SDS011;53350;52.210;5.160;2023-06-14T01:18:35;8.80;;;2.80;;
66523;SDS011;53350;52.210;5.160;2023-06-14T01:21:02;6.93;;;2.78;;
66523;SDS011;53350;52.210;5.160;2023-06-14T01:23:32;5.70;;;2.50;;
66523;SDS011;53350;52.210;5.160;2023-06-14T01:25:59;11.68;;;3.40;;
66523;SDS011;53350;52.210;5.160;2023-06-14T01:28:28;9.98;;;3.13;;
66523;SDS011;53350;52.210;5.160;2023-06-14T01:30:57;10.52;;;2.60;;
66523;SDS011;53350;52.210;5.160;2023-06-14T01:33:29;7.45;;;2.95;;
66523;SDS011;53350;52.210;5.160;2023-06-14T01:35:57;8.05;;;3.08;;
66523;SDS011;53350;52.210;5.160;2023-06-14T01:38:24;6.18;;;2.67;;
66523;SDS011;53350;52.210;5.160;2023-06-14T01:40:54;10.40;;;3.00;;
66523;SDS011;53350;52.210;5.160;2023-06-14T01:43:23;11.35;;;2.58;;
66523;SDS011;53350;52.210;5.160;2023-06-14T01:48:18;10.85;;;3.10;;
66523;SDS011;53350;52.210;5.160;2023-06-14T01:50:46;6.20;;;2.80;;
66523;SDS011;53350;52.210;5.160;2023-06-14T01:53:14;9.43;;;2.80;;
66523;SDS011;53350;52.210;5.160;2023-06-14T01:55:40;9.05;;;2.83;;
66523;SDS011;53350;52.210;5.160;2023-06-14T01:58:09;9.48;;;2.65;;
66523;SDS011;53350;52.210;5.160;2023-06-14T02:00:36;10.50;;;2.72;;
66523;SDS011;53350;52.210;5.160;2023-06-14T02:03:03;6.68;;;2.83;;
66523;SDS011;53350;52.210;5.160;2023-06-14T02:05:29;9.25;;;2.85;;
66523;SDS011;53350;52.210;5.160;2023-06-14T02:07:56;9.68;;;3.00;;
66523;SDS011;53350;52.210;5.160;2023-06-14T02:10:22;7.95;;;2.63;;
66523;SDS011;53350;52.210;5.160;2023-06-14T02:12:49;8.32;;;2.78;;
66523;SDS011;53350;52.210;5.160;2023-06-14T02:15:17;14.15;;;3.10;;
66523;SDS011;53350;52.210;5.160;2023-06-14T02:17:44;8.95;;;2.80;;
66523;SDS011;53350;52.210;5.160;2023-06-14T02:20:12;8.02;;;2.53;;
66523;SDS011;53350;52.210;5.160;2023-06-14T02:22:39;9.40;;;2.70;;
66523;SDS011;53350;52.210;5.160;2023-06-14T02:25:06;8.40;;;2.75;;
66523;SDS011;53350;52.210;5.160;2023-06-14T02:27:33;8.18;;;2.50;;
66523;SDS011;53350;52.210;5.160;2023-06-14T02:29:59;12.32;;;2.78;;
66523;SDS011;53350;52.210;5.160;2023-06-14T02:32:28;8.90;;;2.47;;
66523;SDS011;53350;52.210;5.160;2023-06-14T02:34:54;8.70;;;2.60;;
66523;SDS011;53350;52.210;5.160;2023-06-14T02:37:22;9.00;;;2.35;;
66523;SDS011;53350;52.210;5.160;2023-06-14T02:39:48;15.75;;;3.15;;
66523;SDS011;53350;52.210;5.160;2023-06-14T02:42:15;7.65;;;3.20;;
66523;SDS011;53350;52.210;5.160;2023-06-14T02:44:41;7.65;;;2.70;;
66523;SDS011;53350;52.210;5.160;2023-06-14T02:47:08;5.78;;;2.47;;
66523;SDS011;53350;52.210;5.160;2023-06-14T02:49:36;8.02;;;2.38;;
66523;SDS011;53350;52.210;5.160;2023-06-14T02:52:02;9.27;;;2.70;;
66523;SDS011;53350;52.210;5.160;2023-06-14T02:54:30;7.97;;;2.55;;
66523;SDS011;53350;52.210;5.160;2023-06-14T02:56:56;10.48;;;2.63;;
66523;SDS011;53350;52.210;5.160;2023-06-14T02:59:22;8.18;;;2.75;;
66523;SDS011;53350;52.210;5.160;2023-06-14T03:01:50;15.27;;;2.65;;
66523;SDS011;53350;52.210;5.160;2023-06-14T03:04:16;8.27;;;2.42;;
66523;SDS011;53350;52.210;5.160;2023-06-14T03:06:44;10.77;;;2.97;;
66523;SDS011;53350;52.210;5.160;2023-06-14T03:09:15;6.38;;;2.47;;
66523;SDS011;53350;52.210;5.160;2023-06-14T03:11:41;8.05;;;2.63;;
66523;SDS011;53350;52.210;5.160;2023-06-14T03:14:08;8.40;;;2.70;;
66523;SDS011;53350;52.210;5.160;2023-06-14T03:16:36;8.77;;;2.88;;
66523;SDS011;53350;52.210;5.160;2023-06-14T03:19:03;7.45;;;3.00;;
66523;SDS011;53350;52.210;5.160;2023-06-14T03:21:29;6.18;;;2.50;;
66523;SDS011;53350;52.210;5.160;2023-06-14T03:23:57;11.38;;;2.55;;
66523;SDS011;53350;52.210;5.160;2023-06-14T03:26:24;11.80;;;3.25;;
66523;SDS011;53350;52.210;5.160;2023-06-14T03:28:50;5.03;;;2.20;;
66523;SDS011;53350;52.210;5.160;2023-06-14T03:31:17;7.10;;;2.20;;
66523;SDS011;53350;52.210;5.160;2023-06-14T03:33:44;8.60;;;2.28;;
66523;SDS011;53350;52.210;5.160;2023-06-14T03:36:10;7.65;;;2.65;;
66523;SDS011;53350;52.210;5.160;2023-06-14T03:38:37;8.02;;;2.40;;
66523;SDS011;53350;52.210;5.160;2023-06-14T03:41:04;7.82;;;2.45;;
66523;SDS011;53350;52.210;5.160;2023-06-14T03:43:31;9.60;;;2.65;;
66523;SDS011;53350;52.210;5.160;2023-06-14T03:45:58;6.35;;;2.45;;
66523;SDS011;53350;52.210;5.160;2023-06-14T03:48:24;6.15;;;2.53;;
66523;SDS011;53350;52.210;5.160;2023-06-14T03:50:51;8.32;;;2.40;;
66523;SDS011;53350;52.210;5.160;2023-06-14T03:53:19;7.43;;;2.58;;
66523;SDS011;53350;52.210;5.160;2023-06-14T03:55:48;9.63;;;2.72;;
66523;SDS011;53350;52.210;5.160;2023-06-14T03:58:16;9.38;;;2.75;;
66523;SDS011;53350;52.210;5.160;2023-06-14T04:00:42;6.63;;;2.50;;
66523;SDS011;53350;52.210;5.160;2023-06-14T04:03:10;10.23;;;3.00;;
66523;SDS011;53350;52.210;5.160;2023-06-14T04:05:40;6.68;;;2.20;;
66523;SDS011;53350;52.210;5.160;2023-06-14T04:08:07;6.03;;;2.60;;
66523;SDS011;53350;52.210;5.160;2023-06-14T04:10:34;10.63;;;2.45;;
66523;SDS011;53350;52.210;5.160;2023-06-14T04:13:00;5.25;;;2.10;;
66523;SDS011;53350;52.210;5.160;2023-06-14T04:15:28;8.85;;;2.83;;
66523;SDS011;53350;52.210;5.160;2023-06-14T04:17:55;9.00;;;2.35;;
66523;SDS011;53350;52.210;5.160;2023-06-14T04:20:22;7.05;;;2.63;;
66523;SDS011;53350;52.210;5.160;2023-06-14T04:22:49;12.03;;;2.80;;
66523;SDS011;53350;52.210;5.160;2023-06-14T04:25:16;12.48;;;2.72;;
66523;SDS011;53350;52.210;5.160;2023-06-14T04:27:43;7.28;;;2.50;;
66523;SDS011;53350;52.210;5.160;2023-06-14T04:30:10;8.65;;;2.70;;
66523;SDS011;53350;52.210;5.160;2023-06-14T04:32:39;12.50;;;2.40;;
66523;SDS011;53350;52.210;5.160;2023-06-14T04:35:07;12.13;;;2.75;;
66523;SDS011;53350;52.210;5.160;2023-06-14T04:37:35;9.63;;;2.58;;
66523;SDS011;53350;52.210;5.160;2023-06-14T04:40:05;11.43;;;2.97;;
66523;SDS011;53350;52.210;5.160;2023-06-14T04:42:32;12.15;;;2.70;;
66523;SDS011;53350;52.210;5.160;2023-06-14T04:45:02;9.65;;;2.50;;
66523;SDS011;53350;52.210;5.160;2023-06-14T04:47:28;8.77;;;2.40;;
66523;SDS011;53350;52.210;5.160;2023-06-14T04:49:57;9.52;;;2.60;;
66523;SDS011;53350;52.210;5.160;2023-06-14T04:52:25;10.07;;;2.78;;
66523;SDS011;53350;52.210;5.160;2023-06-14T04:54:54;9.60;;;2.80;;
66523;SDS011;53350;52.210;5.160;2023-06-14T04:57:21;10.90;;;2.83;;
66523;SDS011;53350;52.210;5.160;2023-06-14T04:59:50;7.85;;;2.60;;
66523;SDS011;53350;52.210;5.160;2023-06-14T05:02:20;7.95;;;2.35;;
66523;SDS011;53350;52.210;5.160;2023-06-14T05:04:48;11.05;;;2.55;;
66523;SDS011;53350;52.210;5.160;2023-06-14T05:07:16;7.53;;;2.70;;
66523;SDS011;53350;52.210;5.160;2023-06-14T05:09:42;5.35;;;2.28;;
66523;SDS011;53350;52.210;5.160;2023-06-14T05:12:09;9.50;;;2.55;;
66523;SDS011;53350;52.210;5.160;2023-06-14T05:14:35;7.63;;;2.65;;
66523;SDS011;53350;52.210;5.160;2023-06-14T05:17:02;10.98;;;2.50;;
66523;SDS011;53350;52.210;5.160;2023-06-14T05:19:29;8.60;;;2.97;;
66523;SDS011;53350;52.210;5.160;2023-06-14T05:21:55;12.73;;;2.65;;
66523;SDS011;53350;52.210;5.160;2023-06-14T05:24:23;6.55;;;2.45;;
66523;SDS011;53350;52.210;5.160;2023-06-14T05:26:50;7.85;;;2.85;;
66523;SDS011;53350;52.210;5.160;2023-06-14T05:29:16;9.05;;;2.55;;
66523;SDS011;53350;52.210;5.160;2023-06-14T05:31:43;7.72;;;2.60;;
66523;SDS011;53350;52.210;5.160;2023-06-14T05:34:09;8.30;;;2.70;;
66523;SDS011;53350;52.210;5.160;2023-06-14T05:36:36;8.15;;;3.03;;
66523;SDS011;53350;52.210;5.160;2023-06-14T05:39:03;10.23;;;2.65;;
66523;SDS011;53350;52.210;5.160;2023-06-14T05:41:32;6.70;;;2.50;;
66523;SDS011;53350;52.210;5.160;2023-06-14T05:43:58;7.85;;;2.78;;
66523;SDS011;53350;52.210;5.160;2023-06-14T05:46:25;10.85;;;2.80;;
66523;SDS011;53350;52.210;5.160;2023-06-14T05:48:52;10.63;;;3.28;;
66523;SDS011;53350;52.210;5.160;2023-06-14T05:51:19;12.45;;;3.08;;
66523;SDS011;53350;52.210;5.160;2023-06-14T05:53:45;13.82;;;3.08;;
66523;SDS011;53350;52.210;5.160;2023-06-14T05:56:12;9.20;;;3.13;;
66523;SDS011;53350;52.210;5.160;2023-06-14T05:58:40;9.57;;;3.40;;
66523;SDS011;53350;52.210;5.160;2023-06-14T06:01:07;6.60;;;3.03;;
66523;SDS011;53350;52.210;5.160;2023-06-14T06:03:33;9.57;;;3.10;;
66523;SDS011;53350;52.210;5.160;2023-06-14T06:06:00;11.05;;;3.30;;
66523;SDS011;53350;52.210;5.160;2023-06-14T06:08:28;5.88;;;2.42;;
66523;SDS011;53350;52.210;5.160;2023-06-14T06:10:54;9.65;;;3.00;;
66523;SDS011;53350;52.210;5.160;2023-06-14T06:13:21;9.57;;;3.28;;
66523;SDS011;53350;52.210;5.160;2023-06-14T06:15:49;9.07;;;3.08;;
66523;SDS011;53350;52.210;5.160;2023-06-14T06:18:15;6.35;;;2.85;;
66523;SDS011;53350;52.210;5.160;2023-06-14T06:20:42;7.70;;;2.50;;
66523;SDS011;53350;52.210;5.160;2023-06-14T06:23:09;11.35;;;2.90;;
66523;SDS011;53350;52.210;5.160;2023-06-14T06:25:35;11.45;;;2.90;;
66523;SDS011;53350;52.210;5.160;2023-06-14T06:28:02;10.63;;;2.70;;
66523;SDS011;53350;52.210;5.160;2023-06-14T06:30:28;7.70;;;2.92;;
66523;SDS011;53350;52.210;5.160;2023-06-14T06:32:56;9.60;;;3.20;;
66523;SDS011;53350;52.210;5.160;2023-06-14T06:37:49;13.00;;;3.38;;
66523;SDS011;53350;52.210;5.160;2023-06-14T06:40:16;9.55;;;3.10;;
66523;SDS011;53350;52.210;5.160;2023-06-14T06:42:43;9.25;;;3.28;;
66523;SDS011;53350;52.210;5.160;2023-06-14T06:45:10;8.38;;;2.97;;
66523;SDS011;53350;52.210;5.160;2023-06-14T06:47:36;14.27;;;2.92;;
66523;SDS011;53350;52.210;5.160;2023-06-14T06:50:05;9.85;;;2.90;;
66523;SDS011;53350;52.210;5.160;2023-06-14T06:52:32;11.82;;;2.92;;
66523;SDS011;53350;52.210;5.160;2023-06-14T06:54:59;9.25;;;2.80;;
66523;SDS011;53350;52.210;5.160;2023-06-14T06:57:25;10.88;;;3.08;;
66523;SDS011;53350;52.210;5.160;2023-06-14T06:59:53;10.95;;;3.05;;
66523;SDS011;53350;52.210;5.160;2023-06-14T07:02:19;16.27;;;3.10;;
66523;SDS011;53350;52.210;5.160;2023-06-14T07:04:45;5.72;;;2.60;;
66523;SDS011;53350;52.210;5.160;2023-06-14T07:07:13;5.43;;;2.55;;
66523;SDS011;53350;52.210;5.160;2023-06-14T07:09:40;7.88;;;3.25;;
66523;SDS011;53350;52.210;5.160;2023-06-14T07:12:07;10.47;;;3.20;;
66523;SDS011;53350;52.210;5.160;2023-06-14T07:14:33;11.45;;;2.80;;
66523;SDS011;53350;52.210;5.160;2023-06-14T07:17:00;5.90;;;2.70;;
66523;SDS011;53350;52.210;5.160;2023-06-14T07:19:26;8.40;;;3.08;;
66523;SDS011;53350;52.210;5.160;2023-06-14T07:21:53;7.28;;;2.83;;
66523;SDS011;53350;52.210;5.160;2023-06-14T07:24:21;9.80;;;3.20;;
66523;SDS011;53350;52.210;5.160;2023-06-14T07:26:47;5.65;;;2.75;;
66523;SDS011;53350;52.210;5.160;2023-06-14T07:29:14;12.93;;;3.22;;
66523;SDS011;53350;52.210;5.160;2023-06-14T07:31:41;9.77;;;2.97;;
66523;SDS011;53350;52.210;5.160;2023-06-14T07:34:08;9.93;;;3.17;;
66523;SDS011;53350;52.210;5.160;2023-06-14T07:36:34;6.35;;;2.90;;
66523;SDS011;53350;52.210;5.160;2023-06-14T07:39:01;8.50;;;2.58;;
66523;SDS011;53350;52.210;5.160;2023-06-14T07:41:30;7.78;;;2.80;;
66523;SDS011;53350;52.210;5.160;2023-06-14T07:43:56;5.03;;;2.55;;
66523;SDS011;53350;52.210;5.160;2023-06-14T07:46:23;6.43;;;2.42;;
66523;SDS011;53350;52.210;5.160;2023-06-14T07:48:49;9.15;;;2.58;;
66523;SDS011;53350;52.210;5.160;2023-06-14T07:51:16;10.93;;;2.55;;
66523;SDS011;53350;52.210;5.160;2023-06-14T07:53:42;8.93;;;2.80;;
66523;SDS011;53350;52.210;5.160;2023-06-14T07:56:09;7.32;;;2.78;;
66523;SDS011;53350;52.210;5.160;2023-06-14T07:58:37;8.70;;;2.92;;
66523;SDS011;53350;52.210;5.160;2023-06-14T08:01:03;8.30;;;3.00;;
66523;SDS011;53350;52.210;5.160;2023-06-14T08:03:31;8.70;;;2.78;;
66523;SDS011;53350;52.210;5.160;2023-06-14T08:05:57;9.38;;;2.58;;
66523;SDS011;53350;52.210;5.160;2023-06-14T08:08:24;8.10;;;2.60;;
66523;SDS011;53350;52.210;5.160;2023-06-14T08:10:50;5.60;;;2.20;;
66523;SDS011;53350;52.210;5.160;2023-06-14T08:13:17;5.57;;;2.45;;
66523;SDS011;53350;52.210;5.160;2023-06-14T08:15:45;6.20;;;2.58;;
66523;SDS011;53350;52.210;5.160;2023-06-14T08:20:38;6.97;;;2.28;;
66523;SDS011;53350;52.210;5.160;2023-06-14T08:23:05;6.78;;;2.33;;
66523;SDS011;53350;52.210;5.160;2023-06-14T08:25:31;5.70;;;2.13;;
66523;SDS011;53350;52.210;5.160;2023-06-14T08:27:58;5.00;;;1.90;;
66523;SDS011;53350;52.210;5.160;2023-06-14T08:30:24;7.40;;;2.25;;
66523;SDS011;53350;52.210;5.160;2023-06-14T08:32:52;8.80;;;2.28;;
66523;SDS011;53350;52.210;5.160;2023-06-14T08:35:20;5.05;;;1.98;;
66523;SDS011;53350;52.210;5.160;2023-06-14T08:37:47;6.00;;;2.30;;
66523;SDS011;53350;52.210;5.160;2023-06-14T08:40:17;5.68;;;1.88;;
66523;SDS011;53350;52.210;5.160;2023-06-14T08:42:47;4.30;;;1.95;;
66523;SDS011;53350;52.210;5.160;2023-06-14T08:45:16;8.05;;;2.38;;
66523;SDS011;53350;52.210;5.160;2023-06-14T08:47:43;25.80;;;4.50;;
66523;SDS011;53350;52.210;5.160;2023-06-14T08:52:41;8.07;;;2.03;;
66523;SDS011;53350;52.210;5.160;2023-06-14T08:55:15;6.78;;;2.13;;
66523;SDS011;53350;52.210;5.160;2023-06-14T08:57:45;5.85;;;1.98;;
66523;SDS011;53350;52.210;5.160;2023-06-14T09:02:40;3.67;;;1.90;;
66523;SDS011;53350;52.210;5.160;2023-06-14T09:05:08;4.70;;;2.10;;
66523;SDS011;53350;52.210;5.160;2023-06-14T09:07:36;7.90;;;2.35;;
66523;SDS011;53350;52.210;5.160;2023-06-14T09:10:07;5.07;;;2.10;;
66523;SDS011;53350;52.210;5.160;2023-06-14T09:12:34;6.30;;;1.65;;
66523;SDS011;53350;52.210;5.160;2023-06-14T09:15:01;5.43;;;1.83;;
66523;SDS011;53350;52.210;5.160;2023-06-14T09:17:31;4.65;;;2.00;;
66523;SDS011;53350;52.210;5.160;2023-06-14T09:22:24;7.07;;;2.10;;
66523;SDS011;53350;52.210;5.160;2023-06-14T09:24:52;5.90;;;2.17;;
66523;SDS011;53350;52.210;5.160;2023-06-14T09:27:20;9.85;;;2.40;;
66523;SDS011;53350;52.210;5.160;2023-06-14T09:29:46;3.83;;;2.53;;
66523;SDS011;53350;52.210;5.160;2023-06-14T09:32:13;5.38;;;1.98;;
66523;SDS011;53350;52.210;5.160;2023-06-14T09:34:40;11.02;;;2.80;;
66523;SDS011;53350;52.210;5.160;2023-06-14T09:37:06;5.82;;;2.08;;
66523;SDS011;53350;52.210;5.160;2023-06-14T09:39:33;5.20;;;1.80;;
66523;SDS011;53350;52.210;5.160;2023-06-14T09:42:00;5.45;;;1.98;;
66523;SDS011;53350;52.210;5.160;2023-06-14T09:44:42;5.95;;;2.20;;
66523;SDS011;53350;52.210;5.160;2023-06-14T09:47:09;6.65;;;1.98;;
66523;SDS011;53350;52.210;5.160;2023-06-14T09:49:36;6.03;;;2.10;;
66523;SDS011;53350;52.210;5.160;2023-06-14T09:52:02;7.45;;;2.10;;
66523;SDS011;53350;52.210;5.160;2023-06-14T09:54:30;7.07;;;2.35;;
66523;SDS011;53350;52.210;5.160;2023-06-14T09:57:01;3.88;;;1.95;;
66523;SDS011;53350;52.210;5.160;2023-06-14T09:59:30;4.22;;;2.00;;
66523;SDS011;53350;52.210;5.160;2023-06-14T10:01:59;3.00;;;2.00;;
66523;SDS011;53350;52.210;5.160;2023-06-14T10:04:30;6.57;;;1.90;;
66523;SDS011;53350;52.210;5.160;2023-06-14T10:06:59;6.78;;;2.17;;
66523;SDS011;53350;52.210;5.160;2023-06-14T10:09:28;5.80;;;2.20;;
66523;SDS011;53350;52.210;5.160;2023-06-14T10:14:23;6.25;;;2.20;;
66523;SDS011;53350;52.210;5.160;2023-06-14T10:16:52;8.32;;;2.40;;
66523;SDS011;53350;52.210;5.160;2023-06-14T10:19:28;4.35;;;1.92;;
66523;SDS011;53350;52.210;5.160;2023-06-14T10:22:01;3.83;;;1.80;;
66523;SDS011;53350;52.210;5.160;2023-06-14T10:24:32;7.28;;;1.95;;
66523;SDS011;53350;52.210;5.160;2023-06-14T10:27:00;5.75;;;2.20;;
66523;SDS011;53350;52.210;5.160;2023-06-14T10:29:29;5.90;;;1.73;;
66523;SDS011;53350;52.210;5.160;2023-06-14T10:31:57;17.05;;;2.63;;
66523;SDS011;53350;52.210;5.160;2023-06-14T10:34:25;7.85;;;2.00;;
66523;SDS011;53350;52.210;5.160;2023-06-14T10:37:00;3.78;;;2.08;;
66523;SDS011;53350;52.210;5.160;2023-06-14T10:39:27;5.88;;;1.83;;
66523;SDS011;53350;52.210;5.160;2023-06-14T10:41:55;3.60;;;1.90;;
66523;SDS011;53350;52.210;5.160;2023-06-14T10:47:26;5.55;;;2.13;;
66523;SDS011;53350;52.210;5.160;2023-06-14T10:49:54;3.78;;;1.58;;
66523;SDS011;53350;52.210;5.160;2023-06-14T10:52:22;5.63;;;1.85;;
66523;SDS011;53350;52.210;5.160;2023-06-14T10:54:58;13.02;;;1.90;;
66523;SDS011;53350;52.210;5.160;2023-06-14T10:57:34;4.55;;;1.63;;
66523;SDS011;53350;52.210;5.160;2023-06-14T11:00:03;3.20;;;1.70;;
66523;SDS011;53350;52.210;5.160;2023-06-14T11:08:14;4.15;;;1.80;;
66523;SDS011;53350;52.210;5.160;2023-06-14T11:10:50;4.70;;;1.60;;
66523;SDS011;53350;52.210;5.160;2023-06-14T11:13:19;3.97;;;1.85;;
66523;SDS011;53350;52.210;5.160;2023-06-14T11:15:52;3.67;;;1.80;;
66523;SDS011;53350;52.210;5.160;2023-06-14T11:18:21;6.38;;;1.63;;
66523;SDS011;53350;52.210;5.160;2023-06-14T11:20:49;5.65;;;1.80;;
66523;SDS011;53350;52.210;5.160;2023-06-14T11:23:15;3.65;;;2.10;;
66523;SDS011;53350;52.210;5.160;2023-06-14T11:25:42;4.70;;;1.83;;
66523;SDS011;53350;52.210;5.160;2023-06-14T11:28:08;4.20;;;1.73;;
66523;SDS011;53350;52.210;5.160;2023-06-14T11:30:35;5.40;;;2.15;;
66523;SDS011;53350;52.210;5.160;2023-06-14T11:33:02;4.25;;;1.70;;
66523;SDS011;53350;52.210;5.160;2023-06-14T11:35:30;5.15;;;1.70;;
66523;SDS011;53350;52.210;5.160;2023-06-14T11:37:56;6.35;;;1.75;;
66523;SDS011;53350;52.210;5.160;2023-06-14T11:40:23;8.05;;;2.00;;
66523;SDS011;53350;52.210;5.160;2023-06-14T11:42:51;4.18;;;1.90;;
66523;SDS011;53350;52.210;5.160;2023-06-14T11:45:25;4.65;;;1.80;;
66523;SDS011;53350;52.210;5.160;2023-06-14T11:47:53;3.13;;;1.60;;
66523;SDS011;53350;52.210;5.160;2023-06-14T11:50:22;8.35;;;1.90;;
66523;SDS011;53350;52.210;5.160;2023-06-14T11:55:18;4.10;;;1.65;;
66523;SDS011;53350;52.210;5.160;2023-06-14T11:57:46;6.85;;;1.90;;
66523;SDS011;53350;52.210;5.160;2023-06-14T12:00:13;5.15;;;2.13;;
66523;SDS011;53350;52.210;5.160;2023-06-14T12:02:41;6.43;;;1.92;;
66523;SDS011;53350;52.210;5.160;2023-06-14T12:05:08;4.53;;;1.90;;
66523;SDS011;53350;52.210;5.160;2023-06-14T12:07:37;6.70;;;1.90;;
66523;SDS011;53350;52.210;5.160;2023-06-14T12:10:05;5.50;;;2.00;;
66523;SDS011;53350;52.210;5.160;2023-06-14T12:12:35;8.13;;;2.00;;
66523;SDS011;53350;52.210;5.160;2023-06-14T12:15:02;9.63;;;1.83;;
66523;SDS011;53350;52.210;5.160;2023-06-14T12:19:58;5.10;;;1.75;;
66523;SDS011;53350;52.210;5.160;2023-06-14T12:22:24;5.90;;;1.95;;
66523;SDS011;53350;52.210;5.160;2023-06-14T12:24:52;4.93;;;1.75;;
66523;SDS011;53350;52.210;5.160;2023-06-14T12:27:21;11.43;;;2.60;;
66523;SDS011;53350;52.210;5.160;2023-06-14T12:29:58;6.97;;;2.00;;
66523;SDS011;53350;52.210;5.160;2023-06-14T12:32:25;3.83;;;1.48;;
66523;SDS011;53350;52.210;5.160;2023-06-14T12:34:52;6.20;;;1.88;;
66523;SDS011;53350;52.210;5.160;2023-06-14T12:37:18;8.30;;;1.85;;
66523;SDS011;53350;52.210;5.160;2023-06-14T12:39:44;5.13;;;1.60;;
66523;SDS011;53350;52.210;5.160;2023-06-14T12:42:12;4.35;;;1.70;;
66523;SDS011;53350;52.210;5.160;2023-06-14T12:44:39;4.43;;;1.75;;
66523;SDS011;53350;52.210;5.160;2023-06-14T12:47:06;7.10;;;1.63;;
66523;SDS011;53350;52.210;5.160;2023-06-14T12:49:33;5.97;;;1.90;;
66523;SDS011;53350;52.210;5.160;2023-06-14T12:51:59;7.05;;;1.75;;
66523;SDS011;53350;52.210;5.160;2023-06-14T12:54:26;6.90;;;1.73;;
66523;SDS011;53350;52.210;5.160;2023-06-14T12:56:53;4.15;;;1.80;;
66523;SDS011;53350;52.210;5.160;2023-06-14T12:59:22;11.17;;;1.63;;
66523;SDS011;53350;52.210;5.160;2023-06-14T13:01:48;7.63;;;1.90;;
66523;SDS011;53350;52.210;5.160;2023-06-14T13:04:15;7.18;;;1.80;;
66523;SDS011;53350;52.210;5.160;2023-06-14T13:06:42;7.03;;;1.88;;
66523;SDS011;53350;52.210;5.160;2023-06-14T13:09:08;6.35;;;2.15;;
66523;SDS011;53350;52.210;5.160;2023-06-14T13:11:35;4.05;;;1.85;;
66523;SDS011;53350;52.210;5.160;2023-06-14T13:14:03;9.98;;;1.98;;
66523;SDS011;53350;52.210;5.160;2023-06-14T13:16:30;5.75;;;2.10;;
66523;SDS011;53350;52.210;5.160;2023-06-14T13:18:57;7.63;;;1.95;;
66523;SDS011;53350;52.210;5.160;2023-06-14T13:21:23;12.45;;;1.90;;
66523;SDS011;53350;52.210;5.160;2023-06-14T13:23:50;5.15;;;1.75;;
66523;SDS011;53350;52.210;5.160;2023-06-14T13:26:17;5.87;;;1.80;;
66523;SDS011;53350;52.210;5.160;2023-06-14T13:28:44;7.85;;;1.88;;
66523;SDS011;53350;52.210;5.160;2023-06-14T13:31:10;8.50;;;1.85;;
66523;SDS011;53350;52.210;5.160;2023-06-14T13:33:38;3.45;;;1.92;;
66523;SDS011;53350;52.210;5.160;2023-06-14T13:36:05;4.97;;;1.60;;
66523;SDS011;53350;52.210;5.160;2023-06-14T13:38:31;3.85;;;1.83;;
66523;SDS011;53350;52.210;5.160;2023-06-14T13:40:58;3.05;;;1.70;;
66523;SDS011;53350;52.210;5.160;2023-06-14T13:43:24;4.30;;;1.80;;
66523;SDS011;53350;52.210;5.160;2023-06-14T13:45:50;8.65;;;1.50;;
66523;SDS011;53350;52.210;5.160;2023-06-14T13:48:17;10.57;;;1.80;;
66523;SDS011;53350;52.210;5.160;2023-06-14T13:50:45;3.08;;;1.70;;
66523;SDS011;53350;52.210;5.160;2023-06-14T13:55:39;3.95;;;1.70;;
66523;SDS011;53350;52.210;5.160;2023-06-14T13:58:05;9.07;;;1.98;;
66523;SDS011;53350;52.210;5.160;2023-06-14T14:00:32;6.28;;;1.83;;
66523;SDS011;53350;52.210;5.160;2023-06-14T14:02:59;8.63;;;2.20;;
66523;SDS011;53350;52.210;5.160;2023-06-14T14:05:25;4.90;;;1.88;;
66523;SDS011;53350;52.210;5.160;2023-06-14T14:07:56;3.30;;;1.67;;
66523;SDS011;53350;52.210;5.160;2023-06-14T14:10:23;4.15;;;1.90;;
66523;SDS011;53350;52.210;5.160;2023-06-14T14:12:50;6.55;;;1.92;;
66523;SDS011;53350;52.210;5.160;2023-06-14T14:15:18;5.30;;;1.88;;
66523;SDS011;53350;52.210;5.160;2023-06-14T14:17:44;6.25;;;1.90;;
66523;SDS011;53350;52.210;5.160;2023-06-14T14:20:11;6.00;;;2.70;;
66523;SDS011;53350;52.210;5.160;2023-06-14T14:22:40;6.45;;;1.77;;
66523;SDS011;53350;52.210;5.160;2023-06-14T14:25:08;4.15;;;1.95;;
66523;SDS011;53350;52.210;5.160;2023-06-14T14:27:35;4.30;;;2.00;;
66523;SDS011;53350;52.210;5.160;2023-06-14T14:30:02;5.82;;;1.90;;
66523;SDS011;53350;52.210;5.160;2023-06-14T14:32:29;8.93;;;1.70;;
66523;SDS011;53350;52.210;5.160;2023-06-14T14:34:56;7.68;;;1.90;;
66523;SDS011;53350;52.210;5.160;2023-06-14T14:37:23;6.18;;;1.92;;
66523;SDS011;53350;52.210;5.160;2023-06-14T14:39:49;7.03;;;1.80;;
66523;SDS011;53350;52.210;5.160;2023-06-14T14:42:17;6.60;;;2.10;;
66523;SDS011;53350;52.210;5.160;2023-06-14T14:44:44;5.95;;;2.10;;
66523;SDS011;53350;52.210;5.160;2023-06-14T14:47:11;7.40;;;1.92;;
66523;SDS011;53350;52.210;5.160;2023-06-14T14:49:38;4.57;;;1.63;;
66523;SDS011;53350;52.210;5.160;2023-06-14T14:52:04;5.45;;;1.95;;
66523;SDS011;53350;52.210;5.160;2023-06-14T14:54:31;6.35;;;2.00;;
66523;SDS011;53350;52.210;5.160;2023-06-14T14:56:58;5.05;;;1.70;;
66523;SDS011;53350;52.210;5.160;2023-06-14T14:59:25;3.45;;;1.70;;
66523;SDS011;53350;52.210;5.160;2023-06-14T15:01:52;5.65;;;2.03;;
66523;SDS011;53350;52.210;5.160;2023-06-14T15:04:18;9.35;;;1.98;;
66523;SDS011;53350;52.210;5.160;2023-06-14T15:06:45;3.20;;;1.80;;
66523;SDS011;53350;52.210;5.160;2023-06-14T15:09:11;7.10;;;1.85;;
66523;SDS011;53350;52.210;5.160;2023-06-14T15:11:38;6.60;;;1.52;;
66523;SDS011;53350;52.210;5.160;2023-06-14T15:14:04;5.03;;;1.70;;
66523;SDS011;53350;52.210;5.160;2023-06-14T15:16:32;4.70;;;1.83;;
66523;SDS011;53350;52.210;5.160;2023-06-14T15:18:58;8.65;;;1.77;;
66523;SDS011;53350;52.210;5.160;2023-06-14T15:21:25;6.03;;;1.70;;